East Dennis, MA (02641)

2:18 PM EST on February 01, 2015 (GMT -0500)
Scargo Hill Dennis MA | Change Station
CLOSE
Current Station
Personal Weather Station
Location: Dennis, MA
Elevation: 133 ft
Nearby Weather Stations

Elev 133 ft 41.74 °N, 70.18 °W | Updated 0 second ago

Clear
Clear
32.2 °F
Feels Like 32 °F
N
2.2
Wind Variable Wind from SW
Gusts 9.8 mph

Today
High -- | Low -- °F
--% Chance of Precip.
Yesterday
High -- | Low -- °F
Precip. -- in
6:53 AM 4:55 PM
Waxing Gibbous, 96% visible
Pressure 30.07 in
Visibility 10.0 miles
Clouds Clear
Windchill 32 °F
Dew Point -2 °F
Humidity 22%
Rainfall 0.08 in
Snow Depth Not available.
UV 2 out of 12
Pollen .10 out of 12
Air Quality Not available.
Flu Activity Not available.
METAR KHYA 011856Z 33012G16KT 10SM CLR 00/M12 A3007 RMK AO2 SLP183 T00001117

More Conditions Fewer Conditions

Pressure 30.07 in
Visibility 10.0 miles
Clouds Clear
Windchill 32 °F
Dew Point -2 °F
Humidity 22%
Rainfall 0.08 in
Snow Depth Not available.
UV 2 out of 12
Pollen .10 out of 12
Air Quality Not available.
Flu Activity Not available.
METAR KHYA 011856Z 33012G16KT 10SM CLR 00/M12 A3007 RMK AO2 SLP183 T00001117

More Conditions Fewer Conditions

10-Day Weather Forecast

Almanac

Astronomy

Feb. 01, 2015 Rise Set
Actual Time
Civil Twilight
Nautical Twilight
Astronomical Twilight
Moon
Length of Visible Light
Length of Day
Tomorrow will be .
, % of the Moon is Illuminated

Today's Extremes

State Highs State Lows

Community

WunderPhotos

Upload Photos

1,792,457 photos uploaded!

WunderBlogs® & News

Nearby

Air Quality

  Air Quality AQ Index Pollutant
Not available.

Snow Depth

Station Depth Elevation

Earthquake Activity

City Distance Mag. Time & Date
Minimum magnitude displayed is 2.5.

Coastal Water Temperatures

Place Temperature

Nearby Weather Stations